sensor_id;sensor_type;location;lat;lon;timestamp;pressure;altitude;pressure_sealevel;temperature;humidity
64086;BME280;50333;47.436;21.390;2023-03-14T00:01:18;100183.47;;;9.77;50.60
64086;BME280;50333;47.436;21.390;2023-03-14T00:03:48;100166.28;;;9.76;50.61
64086;BME280;50333;47.436;21.390;2023-03-14T00:06:17;100169.41;;;9.78;50.60
64086;BME280;50333;47.436;21.390;2023-03-14T00:08:46;100172.28;;;9.76;50.56
64086;BME280;50333;47.436;21.390;2023-03-14T00:11:17;100162.91;;;9.75;50.57
64086;BME280;50333;47.436;21.390;2023-03-14T00:13:52;100157.72;;;9.75;50.58
64086;BME280;50333;47.436;21.390;2023-03-14T00:16:21;100161.34;;;9.74;50.62
64086;BME280;50333;47.436;21.390;2023-03-14T00:18:49;100153.03;;;9.72;50.65
64086;BME280;50333;47.436;21.390;2023-03-14T00:21:17;100155.63;;;9.72;50.68
64086;BME280;50333;47.436;21.390;2023-03-14T00:23:45;100154.81;;;9.72;50.70
64086;BME280;50333;47.436;21.390;2023-03-14T00:26:16;100147.81;;;9.72;50.68
64086;BME280;50333;47.436;21.390;2023-03-14T00:28:45;100142.88;;;9.71;50.69
64086;BME280;50333;47.436;21.390;2023-03-14T00:31:15;100148.06;;;9.71;50.70
64086;BME280;50333;47.436;21.390;2023-03-14T00:33:44;100133.22;;;9.71;50.69
64086;BME280;50333;47.436;21.390;2023-03-14T00:36:14;100139.50;;;9.70;50.73
64086;BME280;50333;47.436;21.390;2023-03-14T00:38:46;100137.66;;;9.71;50.67
64086;BME280;50333;47.436;21.390;2023-03-14T00:41:17;100134.00;;;9.72;50.66
64086;BME280;50333;47.436;21.390;2023-03-14T00:43:47;100128.00;;;9.71;50.66
64086;BME280;50333;47.436;21.390;2023-03-14T00:46:15;100123.88;;;9.70;50.75
64086;BME280;50333;47.436;21.390;2023-03-14T00:48:46;100118.91;;;9.69;50.79
64086;BME280;50333;47.436;21.390;2023-03-14T00:51:15;100120.47;;;9.70;50.76
64086;BME280;50333;47.436;21.390;2023-03-14T00:53:43;100121.25;;;9.70;50.75
64086;BME280;50333;47.436;21.390;2023-03-14T00:56:12;100116.06;;;9.70;50.75
64086;BME280;50333;47.436;21.390;2023-03-14T00:58:41;100109.28;;;9.69;50.77
64086;BME280;50333;47.436;21.390;2023-03-14T01:01:18;100098.88;;;9.69;50.80
64086;BME280;50333;47.436;21.390;2023-03-14T01:03:47;100096.25;;;9.69;50.77
64086;BME280;50333;47.436;21.390;2023-03-14T01:06:18;100094.44;;;9.70;50.78
64086;BME280;50333;47.436;21.390;2023-03-14T01:08:47;100092.09;;;9.68;50.77
64086;BME280;50333;47.436;21.390;2023-03-14T01:11:23;100090.03;;;9.70;50.78
64086;BME280;50333;47.436;21.390;2023-03-14T01:13:52;100086.62;;;9.70;50.75
64086;BME280;50333;47.436;21.390;2023-03-14T01:16:22;100080.66;;;9.69;50.77
64086;BME280;50333;47.436;21.390;2023-03-14T01:18:51;100079.34;;;9.67;50.87
64086;BME280;50333;47.436;21.390;2023-03-14T01:21:24;100069.97;;;9.66;50.90
64086;BME280;50333;47.436;21.390;2023-03-14T01:23:55;100067.13;;;9.67;50.92
64086;BME280;50333;47.436;21.390;2023-03-14T01:26:26;100058.53;;;9.67;50.95
64086;BME280;50333;47.436;21.390;2023-03-14T01:28:55;100055.41;;;9.65;50.97
64086;BME280;50333;47.436;21.390;2023-03-14T01:31:25;100048.38;;;9.65;50.99
64086;BME280;50333;47.436;21.390;2023-03-14T01:33:54;100050.19;;;9.65;50.96
64086;BME280;50333;47.436;21.390;2023-03-14T01:36:22;100046.81;;;9.64;50.95
64086;BME280;50333;47.436;21.390;2023-03-14T01:38:51;100056.97;;;9.66;50.91
64086;BME280;50333;47.436;21.390;2023-03-14T01:41:23;100042.91;;;9.67;50.88
64086;BME280;50333;47.436;21.390;2023-03-14T01:43:52;100044.97;;;9.65;50.97
64086;BME280;50333;47.436;21.390;2023-03-14T01:56:53;100023.91;;;9.61;51.11
64086;BME280;50333;47.436;21.390;2023-03-14T01:59:24;100030.69;;;9.62;51.10
64086;BME280;50333;47.436;21.390;2023-03-14T02:01:54;100027.31;;;9.61;51.15
64086;BME280;50333;47.436;21.390;2023-03-14T02:04:25;100023.91;;;9.61;51.13
64086;BME280;50333;47.436;21.390;2023-03-14T02:07:26;100025.47;;;9.62;51.10
64086;BME280;50333;47.436;21.390;2023-03-14T02:10:01;100029.91;;;9.61;51.16
64086;BME280;50333;47.436;21.390;2023-03-14T02:12:31;100021.31;;;9.61;51.15
64086;BME280;50333;47.436;21.390;2023-03-14T02:15:04;100023.13;;;9.60;51.17
64086;BME280;50333;47.436;21.390;2023-03-14T02:17:33;100020.78;;;9.59;51.19
64086;BME280;50333;47.436;21.390;2023-03-14T02:22:51;100009.34;;;9.60;51.20
64086;BME280;50333;47.436;21.390;2023-03-14T02:28:03;100010.63;;;9.57;51.26
64086;BME280;50333;47.436;21.390;2023-03-14T02:30:32;100004.41;;;9.58;51.25
64086;BME280;50333;47.436;21.390;2023-03-14T02:33:07;99992.41;;;9.57;51.28
64086;BME280;50333;47.436;21.390;2023-03-14T02:35:55;99994.25;;;9.57;51.29
64086;BME280;50333;47.436;21.390;2023-03-14T02:38:33;99994.50;;;9.55;51.32
64086;BME280;50333;47.436;21.390;2023-03-14T02:41:04;99992.69;;;9.56;51.35
64086;BME280;50333;47.436;21.390;2023-03-14T02:43:33;99988.53;;;9.55;51.35
64086;BME280;50333;47.436;21.390;2023-03-14T02:46:03;99988.53;;;9.55;51.35
64086;BME280;50333;47.436;21.390;2023-03-14T02:48:36;99985.13;;;9.54;51.32
64086;BME280;50333;47.436;21.390;2023-03-14T02:51:07;99983.34;;;9.55;51.32
64086;BME280;50333;47.436;21.390;2023-03-14T02:53:37;99974.72;;;9.54;51.33
64086;BME280;50333;47.436;21.390;2023-03-14T02:56:07;99975.78;;;9.53;51.34
64086;BME280;50333;47.436;21.390;2023-03-14T02:58:36;99970.59;;;9.53;51.33
64086;BME280;50333;47.436;21.390;2023-03-14T03:01:05;99968.75;;;9.54;51.36
64086;BME280;50333;47.436;21.390;2023-03-14T03:03:33;99967.97;;;9.53;51.37
64086;BME280;50333;47.436;21.390;2023-03-14T03:06:02;99964.59;;;9.53;51.38
64086;BME280;50333;47.436;21.390;2023-03-14T03:08:31;99964.59;;;9.53;51.39
64086;BME280;50333;47.436;21.390;2023-03-14T03:10:59;99964.59;;;9.53;51.37
64086;BME280;50333;47.436;21.390;2023-03-14T03:13:28;99960.94;;;9.54;51.36
64086;BME280;50333;47.436;21.390;2023-03-14T03:15:56;99966.16;;;9.54;51.31
64086;BME280;50333;47.436;21.390;2023-03-14T03:18:24;99972.41;;;9.53;51.33
64086;BME280;50333;47.436;21.390;2023-03-14T03:20:52;99967.97;;;9.53;51.32
64086;BME280;50333;47.436;21.390;2023-03-14T03:23:22;99963.53;;;9.54;51.30
64086;BME280;50333;47.436;21.390;2023-03-14T03:25:50;99972.13;;;9.54;51.31
64086;BME280;50333;47.436;21.390;2023-03-14T03:28:19;99962.50;;;9.55;51.29
64086;BME280;50333;47.436;21.390;2023-03-14T03:30:49;99959.12;;;9.54;51.27
64086;BME280;50333;47.436;21.390;2023-03-14T03:33:17;99947.94;;;9.54;51.26
64086;BME280;50333;47.436;21.390;2023-03-14T03:35:47;99940.91;;;9.54;51.24
64086;BME280;50333;47.436;21.390;2023-03-14T03:38:16;99950.53;;;9.54;51.26
64086;BME280;50333;47.436;21.390;2023-03-14T03:40:44;99938.03;;;9.56;51.21
64086;BME280;50333;47.436;21.390;2023-03-14T03:43:12;99932.81;;;9.56;51.17
64086;BME280;50333;47.436;21.390;2023-03-14T03:45:41;99928.69;;;9.55;51.17
64086;BME280;50333;47.436;21.390;2023-03-14T03:48:10;99923.22;;;9.56;51.13
64086;BME280;50333;47.436;21.390;2023-03-14T03:50:44;99916.44;;;9.55;51.11
64086;BME280;50333;47.436;21.390;2023-03-14T03:53:12;99907.88;;;9.55;51.10
64086;BME280;50333;47.436;21.390;2023-03-14T03:55:50;99902.66;;;9.55;51.11
64086;BME280;50333;47.436;21.390;2023-03-14T03:58:18;99905.78;;;9.57;51.09
64086;BME280;50333;47.436;21.390;2023-03-14T04:00:46;99905.00;;;9.56;51.08
64086;BME280;50333;47.436;21.390;2023-03-14T04:03:15;99899.53;;;9.58;51.08
64086;BME280;50333;47.436;21.390;2023-03-14T04:05:43;99886.78;;;9.56;51.07
64086;BME280;50333;47.436;21.390;2023-03-14T04:08:11;99889.38;;;9.56;51.08
64086;BME280;50333;47.436;21.390;2023-03-14T04:10:39;99893.53;;;9.57;51.09
64086;BME280;50333;47.436;21.390;2023-03-14T04:13:08;99897.97;;;9.57;51.06
64086;BME280;50333;47.436;21.390;2023-03-14T04:15:36;99899.81;;;9.56;51.08
64086;BME280;50333;47.436;21.390;2023-03-14T04:18:04;99888.31;;;9.57;51.02
64086;BME280;50333;47.436;21.390;2023-03-14T04:20:34;99884.69;;;9.58;51.01
64086;BME280;50333;47.436;21.390;2023-03-14T04:23:03;99877.91;;;9.57;51.03
64086;BME280;50333;47.436;21.390;2023-03-14T04:25:31;99868.31;;;9.58;50.98
64086;BME280;50333;47.436;21.390;2023-03-14T04:28:02;99861.53;;;9.57;50.98
64086;BME280;50333;47.436;21.390;2023-03-14T04:30:32;99854.50;;;9.57;50.95
64086;BME280;50333;47.436;21.390;2023-03-14T04:33:00;99856.34;;;9.57;50.97
64086;BME280;50333;47.436;21.390;2023-03-14T04:35:31;99850.34;;;9.56;50.94
64086;BME280;50333;47.436;21.390;2023-03-14T04:38:01;99841.50;;;9.57;50.95
64086;BME280;50333;47.436;21.390;2023-03-14T04:40:30;99840.44;;;9.58;50.85
64086;BME280;50333;47.436;21.390;2023-03-14T04:42:58;99825.09;;;9.57;50.92
64086;BME280;50333;47.436;21.390;2023-03-14T04:45:27;99819.13;;;9.56;50.90
64086;BME280;50333;47.436;21.390;2023-03-14T04:47:56;99821.47;;;9.58;50.87
64086;BME280;50333;47.436;21.390;2023-03-14T04:50:24;99821.47;;;9.58;50.84
64086;BME280;50333;47.436;21.390;2023-03-14T04:52:53;99841.22;;;9.59;50.77
64086;BME280;50333;47.436;21.390;2023-03-14T04:55:21;99838.63;;;9.59;50.75
64086;BME280;50333;47.436;21.390;2023-03-14T04:57:53;99840.19;;;9.60;50.70
64086;BME280;50333;47.436;21.390;2023-03-14T05:00:21;99831.31;;;9.61;50.66
64086;BME280;50333;47.436;21.390;2023-03-14T05:02:50;99820.91;;;9.61;50.61
64086;BME280;50333;47.436;21.390;2023-03-14T05:05:19;99818.03;;;9.62;50.53
64086;BME280;50333;47.436;21.390;2023-03-14T05:07:49;99809.97;;;9.64;50.48
64086;BME280;50333;47.436;21.390;2023-03-14T05:10:17;99811.53;;;9.65;50.33
64086;BME280;50333;47.436;21.390;2023-03-14T05:12:46;99816.75;;;9.65;50.32
64086;BME280;50333;47.436;21.390;2023-03-14T05:15:15;99810.22;;;9.68;50.20
64086;BME280;50333;47.436;21.390;2023-03-14T05:17:43;99812.81;;;9.68;50.07
64086;BME280;50333;47.436;21.390;2023-03-14T05:20:11;99816.72;;;9.70;50.05
64086;BME280;50333;47.436;21.390;2023-03-14T05:22:43;99820.88;;;9.71;49.98
64086;BME280;50333;47.436;21.390;2023-03-14T05:25:10;99819.84;;;9.72;49.80
64086;BME280;50333;47.436;21.390;2023-03-14T05:27:39;99815.66;;;9.71;49.71
64086;BME280;50333;47.436;21.390;2023-03-14T05:30:11;99811.50;;;9.75;49.60
64086;BME280;50333;47.436;21.390;2023-03-14T05:32:42;99801.09;;;9.75;49.58
64086;BME280;50333;47.436;21.390;2023-03-14T05:35:10;99807.56;;;9.78;49.44
64086;BME280;50333;47.436;21.390;2023-03-14T05:37:39;99804.69;;;9.79;49.28
64086;BME280;50333;47.436;21.390;2023-03-14T05:40:09;99804.69;;;9.79;49.29
64086;BME280;50333;47.436;21.390;2023-03-14T05:42:38;99814.84;;;9.81;49.20
64086;BME280;50333;47.436;21.390;2023-03-14T05:45:06;99811.19;;;9.82;49.05
64086;BME280;50333;47.436;21.390;2023-03-14T05:47:35;99808.31;;;9.84;48.98
64086;BME280;50333;47.436;21.390;2023-03-14T05:50:04;99808.31;;;9.84;48.92
64086;BME280;50333;47.436;21.390;2023-03-14T05:52:33;99806.22;;;9.86;48.79
64086;BME280;50333;47.436;21.390;2023-03-14T05:55:01;99807.50;;;9.88;48.68
64086;BME280;50333;47.436;21.390;2023-03-14T05:57:31;99807.25;;;9.90;48.46
64086;BME280;50333;47.436;21.390;2023-03-14T06:00:03;99804.09;;;9.93;48.38
64086;BME280;50333;47.436;21.390;2023-03-14T06:02:38;99805.38;;;9.95;48.16
64086;BME280;50333;47.436;21.390;2023-03-14T06:05:08;99809.28;;;9.98;48.03
64086;BME280;50333;47.436;21.390;2023-03-14T06:07:37;99809.78;;;10.00;47.92
64086;BME280;50333;47.436;21.390;2023-03-14T06:10:05;99815.25;;;10.04;47.78
64086;BME280;50333;47.436;21.390;2023-03-14T06:12:36;99814.72;;;10.07;47.71
64086;BME280;50333;47.436;21.390;2023-03-14T06:15:04;99805.56;;;10.09;47.53
64086;BME280;50333;47.436;21.390;2023-03-14T06:17:36;99809.72;;;10.10;47.31
64086;BME280;50333;47.436;21.390;2023-03-14T06:20:11;99807.62;;;10.12;47.19
64086;BME280;50333;47.436;21.390;2023-03-14T06:22:40;99811.25;;;10.16;47.10
64086;BME280;50333;47.436;21.390;2023-03-14T06:25:10;99803.94;;;10.18;47.01
64086;BME280;50333;47.436;21.390;2023-03-14T06:27:38;99806.25;;;10.20;47.00
64086;BME280;50333;47.436;21.390;2023-03-14T06:30:06;99801.28;;;10.24;46.92
64086;BME280;50333;47.436;21.390;2023-03-14T06:32:36;99807.28;;;10.24;46.85
64086;BME280;50333;47.436;21.390;2023-03-14T06:35:05;99812.22;;;10.26;46.74
64086;BME280;50333;47.436;21.390;2023-03-14T06:37:34;99812.75;;;10.28;46.72
64086;BME280;50333;47.436;21.390;2023-03-14T06:40:04;99813.50;;;10.28;46.69
64086;BME280;50333;47.436;21.390;2023-03-14T06:42:35;99814.28;;;10.29;46.66
64086;BME280;50333;47.436;21.390;2023-03-14T06:45:04;99816.88;;;10.34;46.60
64086;BME280;50333;47.436;21.390;2023-03-14T06:47:32;99813.78;;;10.32;46.64
64086;BME280;50333;47.436;21.390;2023-03-14T06:50:03;99812.97;;;10.36;46.45
64086;BME280;50333;47.436;21.390;2023-03-14T06:52:34;99813.72;;;10.37;46.48
64086;BME280;50333;47.436;21.390;2023-03-14T06:55:03;99816.03;;;10.44;46.41
64086;BME280;50333;47.436;21.390;2023-03-14T06:57:32;99818.81;;;10.52;46.27
64086;BME280;50333;47.436;21.390;2023-03-14T07:00:01;99809.41;;;10.56;46.24
64086;BME280;50333;47.436;21.390;2023-03-14T07:02:30;99800.81;;;10.56;46.19
64086;BME280;50333;47.436;21.390;2023-03-14T07:05:11;99798.13;;;10.66;45.89
64086;BME280;50333;47.436;21.390;2023-03-14T07:07:40;99796.78;;;10.69;45.67
64086;BME280;50333;47.436;21.390;2023-03-14T07:10:09;99793.69;;;10.67;45.77
64086;BME280;50333;47.436;21.390;2023-03-14T07:12:41;99797.00;;;10.72;45.59
64086;BME280;50333;47.436;21.390;2023-03-14T07:15:10;99801.19;;;10.73;45.43
64086;BME280;50333;47.436;21.390;2023-03-14T07:17:46;99799.56;;;10.78;45.24
64086;BME280;50333;47.436;21.390;2023-03-14T07:20:17;99805.00;;;10.81;45.12
64086;BME280;50333;47.436;21.390;2023-03-14T07:22:49;99799.25;;;10.84;44.99
64086;BME280;50333;47.436;21.390;2023-03-14T07:25:19;99789.59;;;10.85;44.87
64086;BME280;50333;47.436;21.390;2023-03-14T07:27:47;99786.72;;;10.86;44.79
64086;BME280;50333;47.436;21.390;2023-03-14T07:30:18;99783.06;;;10.87;44.64
64086;BME280;50333;47.436;21.390;2023-03-14T07:32:46;99780.19;;;10.89;44.63
64086;BME280;50333;47.436;21.390;2023-03-14T07:35:14;99776.28;;;10.86;44.72
64086;BME280;50333;47.436;21.390;2023-03-14T07:37:43;99784.06;;;10.91;44.47
64086;BME280;50333;47.436;21.390;2023-03-14T07:40:13;99788.72;;;10.94;44.49
64086;BME280;50333;47.436;21.390;2023-03-14T07:42:43;99789.22;;;10.97;44.40
64086;BME280;50333;47.436;21.390;2023-03-14T07:45:12;99789.75;;;10.93;44.56
64086;BME280;50333;47.436;21.390;2023-03-14T07:47:39;99786.38;;;10.93;44.59
64086;BME280;50333;47.436;21.390;2023-03-14T07:50:08;99774.06;;;10.99;44.43
64086;BME280;50333;47.436;21.390;2023-03-14T07:52:37;99782.97;;;10.98;44.51
64086;BME280;50333;47.436;21.390;2023-03-14T07:55:06;99776.41;;;11.00;44.42
64086;BME280;50333;47.436;21.390;2023-03-14T07:57:34;99782.09;;;11.02;44.29
64086;BME280;50333;47.436;21.390;2023-03-14T08:00:05;99781.28;;;11.07;44.20
64086;BME280;50333;47.436;21.390;2023-03-14T08:02:40;99781.06;;;11.03;44.27
64086;BME280;50333;47.436;21.390;2023-03-14T08:05:08;99773.50;;;11.02;44.21
64086;BME280;50333;47.436;21.390;2023-03-14T08:07:36;99769.38;;;11.01;44.33
64086;BME280;50333;47.436;21.390;2023-03-14T08:10:06;99764.41;;;10.99;44.30
64086;BME280;50333;47.436;21.390;2023-03-14T08:12:37;99761.53;;;11.01;44.33
64086;BME280;50333;47.436;21.390;2023-03-14T08:15:05;99761.47;;;11.06;44.16
64086;BME280;50333;47.436;21.390;2023-03-14T08:17:34;99752.59;;;11.07;44.21
64086;BME280;50333;47.436;21.390;2023-03-14T08:20:04;99754.44;;;11.06;44.22
64086;BME280;50333;47.436;21.390;2023-03-14T08:22:37;99756.41;;;11.14;44.08
64086;BME280;50333;47.436;21.390;2023-03-14T08:25:06;99753.41;;;11.26;43.77
64086;BME280;50333;47.436;21.390;2023-03-14T08:27:35;99751.28;;;11.28;43.71
64086;BME280;50333;47.436;21.390;2023-03-14T08:30:07;99752.50;;;11.36;43.51
64086;BME280;50333;47.436;21.390;2023-03-14T08:32:36;99756.25;;;11.49;43.22
64086;BME280;50333;47.436;21.390;2023-03-14T08:35:05;99743.56;;;11.61;43.01
64086;BME280;50333;47.436;21.390;2023-03-14T08:37:34;99745.88;;;11.63;42.94
64086;BME280;50333;47.436;21.390;2023-03-14T08:40:06;99744.25;;;11.86;42.47
64086;BME280;50333;47.436;21.390;2023-03-14T08:42:37;99739.59;;;12.21;41.90
64086;BME280;50333;47.436;21.390;2023-03-14T08:45:06;99737.44;;;12.56;41.02
64086;BME280;50333;47.436;21.390;2023-03-14T08:47:35;99735.00;;;12.73;40.68
64086;BME280;50333;47.436;21.390;2023-03-14T08:50:05;99733.84;;;13.07;39.74
64086;BME280;50333;47.436;21.390;2023-03-14T08:52:35;99735.00;;;13.15;39.70
64086;BME280;50333;47.436;21.390;2023-03-14T08:55:04;99722.22;;;13.13;39.64
64086;BME280;50333;47.436;21.390;2023-03-14T08:57:32;99724.41;;;13.06;39.79
64086;BME280;50333;47.436;21.390;2023-03-14T09:00:04;99718.72;;;13.04;39.82
64086;BME280;50333;47.436;21.390;2023-03-14T09:02:43;99719.63;;;12.86;40.18
64086;BME280;50333;47.436;21.390;2023-03-14T09:05:11;99711.37;;;12.78;40.38
64086;BME280;50333;47.436;21.390;2023-03-14T09:07:39;99705.16;;;12.74;40.47
64086;BME280;50333;47.436;21.390;2023-03-14T09:10:09;99708.44;;;12.66;40.56
64086;BME280;50333;47.436;21.390;2023-03-14T09:12:40;99707.41;;;12.67;40.66
64086;BME280;50333;47.436;21.390;2023-03-14T09:15:09;99702.34;;;12.57;40.71
64086;BME280;50333;47.436;21.390;2023-03-14T09:17:37;99698.13;;;12.61;40.76
64086;BME280;50333;47.436;21.390;2023-03-14T09:20:05;99709.63;;;12.60;40.71
64086;BME280;50333;47.436;21.390;2023-03-14T09:22:35;99689.66;;;12.50;40.95
64086;BME280;50333;47.436;21.390;2023-03-14T09:25:04;99681.13;;;12.44;40.92
64086;BME280;50333;47.436;21.390;2023-03-14T09:27:32;99678.72;;;12.48;40.88
64086;BME280;50333;47.436;21.390;2023-03-14T09:30:01;99690.25;;;12.47;40.92
64086;BME280;50333;47.436;21.390;2023-03-14T09:32:30;99680.09;;;12.45;40.91
64086;BME280;50333;47.436;21.390;2023-03-14T09:34:59;99676.28;;;12.52;40.91
64086;BME280;50333;47.436;21.390;2023-03-14T09:37:29;99678.16;;;12.51;40.89
64086;BME280;50333;47.436;21.390;2023-03-14T09:39:57;99667.50;;;12.48;40.96
64086;BME280;50333;47.436;21.390;2023-03-14T09:42:26;99670.41;;;12.46;40.96
64086;BME280;50333;47.436;21.390;2023-03-14T09:45:03;99666.41;;;12.49;40.91
64086;BME280;50333;47.436;21.390;2023-03-14T09:47:34;99653.75;;;12.56;40.65
64086;BME280;50333;47.436;21.390;2023-03-14T09:50:14;99653.75;;;12.56;40.73
64086;BME280;50333;47.436;21.390;2023-03-14T09:52:45;99646.47;;;12.67;40.52
64086;BME280;50333;47.436;21.390;2023-03-14T09:55:18;99644.34;;;12.82;40.23
64086;BME280;50333;47.436;21.390;2023-03-14T09:57:51;99644.91;;;12.79;40.27
64086;BME280;50333;47.436;21.390;2023-03-14T10:00:26;99635.00;;;12.90;40.07
64086;BME280;50333;47.436;21.390;2023-03-14T10:05:41;99645.63;;;13.08;39.93
64086;BME280;50333;47.436;21.390;2023-03-14T10:08:10;99637.84;;;13.16;39.70
64086;BME280;50333;47.436;21.390;2023-03-14T10:10:41;99631.03;;;13.29;39.50
64086;BME280;50333;47.436;21.390;2023-03-14T10:13:22;99612.06;;;13.46;39.33
64086;BME280;50333;47.436;21.390;2023-03-14T10:15:54;99613.50;;;13.75;38.83
64086;BME280;50333;47.436;21.390;2023-03-14T10:18:23;99610.91;;;14.15;38.14
64086;BME280;50333;47.436;21.390;2023-03-14T10:21:07;99608.16;;;14.60;37.60
64086;BME280;50333;47.436;21.390;2023-03-14T10:23:44;99593.34;;;14.64;37.29
64086;BME280;50333;47.436;21.390;2023-03-14T10:26:18;99596.47;;;14.75;36.87
64086;BME280;50333;47.436;21.390;2023-03-14T10:28:53;99591.53;;;14.82;36.98
64086;BME280;50333;47.436;21.390;2023-03-14T10:31:25;99578.41;;;14.82;36.95
64086;BME280;50333;47.436;21.390;2023-03-14T10:33:59;99574.69;;;14.92;36.76
64086;BME280;50333;47.436;21.390;2023-03-14T10:36:29;99566.97;;;14.78;37.06
64086;BME280;50333;47.436;21.390;2023-03-14T10:41:48;99565.75;;;14.84;37.20
64086;BME280;50333;47.436;21.390;2023-03-14T10:44:21;99566.50;;;14.85;37.12
64086;BME280;50333;47.436;21.390;2023-03-14T10:46:59;99547.06;;;14.86;37.08
64086;BME280;50333;47.436;21.390;2023-03-14T10:49:33;99551.69;;;14.80;37.33
64086;BME280;50333;47.436;21.390;2023-03-14T10:52:21;99547.69;;;14.83;37.35
64086;BME280;50333;47.436;21.390;2023-03-14T10:55:01;99538.09;;;14.69;37.74
64086;BME280;50333;47.436;21.390;2023-03-14T10:57:29;99539.50;;;14.67;37.85
64086;BME280;50333;47.436;21.390;2023-03-14T10:59:58;99525.62;;;14.66;37.88
64086;BME280;50333;47.436;21.390;2023-03-14T11:03:03;99516.91;;;14.57;38.20
64086;BME280;50333;47.436;21.390;2023-03-14T11:05:30;99521.13;;;14.58;38.26
64086;BME280;50333;47.436;21.390;2023-03-14T11:10:54;99517.06;;;14.52;38.74
64086;BME280;50333;47.436;21.390;2023-03-14T11:13:32;99510.44;;;14.46;38.82
64086;BME280;50333;47.436;21.390;2023-03-14T11:16:14;99524.78;;;14.40;39.09
64086;BME280;50333;47.436;21.390;2023-03-14T11:21:52;99505.97;;;14.46;39.08
64086;BME280;50333;47.436;21.390;2023-03-14T11:27:23;99495.16;;;14.48;39.21
64086;BME280;50333;47.436;21.390;2023-03-14T11:30:27;99482.81;;;14.48;39.27
64086;BME280;50333;47.436;21.390;2023-03-14T11:33:04;99487.44;;;14.51;39.29
64086;BME280;50333;47.436;21.390;2023-03-14T11:36:19;99481.59;;;14.46;39.41
64086;BME280;50333;47.436;21.390;2023-03-14T11:38:43;99484.53;;;14.53;39.41
64086;BME280;50333;47.436;21.390;2023-03-14T11:41:23;99475.94;;;14.61;39.40
64086;BME280;50333;47.436;21.390;2023-03-14T11:43:58;99462.94;;;14.56;39.52
64086;BME280;50333;47.436;21.390;2023-03-14T11:46:39;99452.31;;;14.61;39.48
64086;BME280;50333;47.436;21.390;2023-03-14T11:52:03;99441.81;;;14.61;39.58
64086;BME280;50333;47.436;21.390;2023-03-14T11:54:48;99436.87;;;14.68;39.59
64086;BME280;50333;47.436;21.390;2023-03-14T11:57:20;99427.47;;;14.67;39.68
64086;BME280;50333;47.436;21.390;2023-03-14T12:00:17;99425.44;;;14.73;39.60
64086;BME280;50333;47.436;21.390;2023-03-14T12:02:57;99412.47;;;14.77;39.65
64086;BME280;50333;47.436;21.390;2023-03-14T12:05:58;99407.88;;;14.74;39.74
64086;BME280;50333;47.436;21.390;2023-03-14T12:08:55;99404.91;;;14.84;39.65
64086;BME280;50333;47.436;21.390;2023-03-14T12:14:03;99389.63;;;14.86;39.57
64086;BME280;50333;47.436;21.390;2023-03-14T12:16:46;99388.06;;;14.85;39.74
64086;BME280;50333;47.436;21.390;2023-03-14T12:19:27;99382.97;;;14.88;39.70
64086;BME280;50333;47.436;21.390;2023-03-14T12:22:30;99378.47;;;14.89;39.73
64086;BME280;50333;47.436;21.390;2023-03-14T12:25:13;99386.19;;;14.94;39.66
64086;BME280;50333;47.436;21.390;2023-03-14T12:35:49;99384.94;;;15.00;39.82
64086;BME280;50333;47.436;21.390;2023-03-14T12:43:55;99375.34;;;15.04;39.92
64086;BME280;50333;47.436;21.390;2023-03-14T12:46:25;99373.19;;;15.06;39.93
64086;BME280;50333;47.436;21.390;2023-03-14T12:51:42;99372.88;;;14.99;40.01
64086;BME280;50333;47.436;21.390;2023-03-14T12:54:25;99374.91;;;14.94;40.11
64086;BME280;50333;47.436;21.390;2023-03-14T12:57:14;99362.09;;;14.92;40.01
64086;BME280;50333;47.436;21.390;2023-03-14T13:02:28;99356.66;;;15.06;39.75
64086;BME280;50333;47.436;21.390;2023-03-14T13:05:04;99351.31;;;14.94;39.95
64086;BME280;50333;47.436;21.390;2023-03-14T13:10:38;99338.31;;;14.97;40.09
64086;BME280;50333;47.436;21.390;2023-03-14T13:13:24;99340.16;;;15.05;39.96
64086;BME280;50333;47.436;21.390;2023-03-14T13:15:57;99339.34;;;15.14;39.85
64086;BME280;50333;47.436;21.390;2023-03-14T13:18:34;99326.56;;;15.03;40.00
64086;BME280;50333;47.436;21.390;2023-03-14T13:21:09;99325.97;;;14.98;40.15
64086;BME280;50333;47.436;21.390;2023-03-14T13:23:39;99313.59;;;15.07;39.77
64086;BME280;50333;47.436;21.390;2023-03-14T13:26:14;99304.03;;;15.02;39.84
64086;BME280;50333;47.436;21.390;2023-03-14T13:28:43;99300.91;;;15.09;39.84
64086;BME280;50333;47.436;21.390;2023-03-14T13:31:23;99300.31;;;15.03;39.82
64086;BME280;50333;47.436;21.390;2023-03-14T13:33:59;99297.59;;;14.91;40.07
64086;BME280;50333;47.436;21.390;2023-03-14T13:36:28;99290.50;;;14.92;40.08
64086;BME280;50333;47.436;21.390;2023-03-14T13:38:58;99294.97;;;14.91;40.04
64086;BME280;50333;47.436;21.390;2023-03-14T13:41:27;99285.37;;;14.95;39.88
64086;BME280;50333;47.436;21.390;2023-03-14T13:44:06;99288.09;;;14.78;40.22
64086;BME280;50333;47.436;21.390;2023-03-14T13:46:36;99293.47;;;14.81;40.20
64086;BME280;50333;47.436;21.390;2023-03-14T13:49:09;99286.69;;;14.71;40.41
64086;BME280;50333;47.436;21.390;2023-03-14T13:51:39;99280.88;;;14.66;40.49
64086;BME280;50333;47.436;21.390;2023-03-14T13:54:18;99279.66;;;14.63;40.49
64086;BME280;50333;47.436;21.390;2023-03-14T13:56:47;99284.72;;;14.68;40.47
64086;BME280;50333;47.436;21.390;2023-03-14T13:59:26;99279.16;;;14.70;40.42
64086;BME280;50333;47.436;21.390;2023-03-14T14:01:55;99278.09;;;14.62;40.62
64086;BME280;50333;47.436;21.390;2023-03-14T14:04:25;99280.09;;;14.65;40.59
64086;BME280;50333;47.436;21.390;2023-03-14T14:06:59;99285.53;;;14.60;40.76
64086;BME280;50333;47.436;21.390;2023-03-14T14:09:30;99272.84;;;14.53;40.94
64086;BME280;50333;47.436;21.390;2023-03-14T14:15:02;99262.53;;;14.48;40.99
64086;BME280;50333;47.436;21.390;2023-03-14T14:18:04;99258.06;;;14.40;41.14